TimeEST,TemperatureF,Dew PointF,Humidity,Sea Level PressureIn,VisibilityMPH,Wind Direction,Wind SpeedMPH,Gust SpeedMPH,PrecipitationIn,Events,Conditions,WindDirDegrees,DateUTC
12:15 AM,34.9,24.3,65,30.02,10.0,ENE,6.9,-,N/A,,Scattered Clouds,60,2012-11-07 05:15:00
12:35 AM,34.7,23.9,65,30.02,10.0,NE,8.1,-,N/A,,Scattered Clouds,50,2012-11-07 05:35:00
12:54 AM,34.0,23.0,64,30.02,10.0,NE,5.8,-,N/A,,Clear,40,2012-11-07 05:54:00
1:15 AM,33.4,23.0,66,30.02,10.0,NNE,5.8,-,N/A,,Clear,30,2012-11-07 06:15:00
1:35 AM,32.9,23.4,68,30.01,10.0,NNE,3.5,-,N/A,,Clear,30,2012-11-07 06:35:00
1:54 AM,32.2,23.5,70,30.01,10.0,NNE,3.5,-,N/A,,Clear,20,2012-11-07 06:54:00
2:15 AM,32.0,23.5,71,30.02,10.0,NNE,3.5,-,N/A,,Clear,20,2012-11-07 07:15:00
2:34 AM,32.0,23.7,71,30.02,10.0,NNE,3.5,-,N/A,,Clear,20,2012-11-07 07:34:00
2:55 AM,32.0,23.9,72,30.02,10.0,NNE,4.6,-,N/A,,Clear,20,2012-11-07 07:55:00
3:15 AM,32.0,23.9,72,30.02,10.0,NNE,4.6,-,N/A,,Scattered Clouds,20,2012-11-07 08:15:00
3:55 AM,33.4,24.8,71,30.02,10.0,NE,9.2,-,N/A,,Overcast,40,2012-11-07 08:55:00
4:15 AM,33.8,24.8,70,30.02,10.0,NE,8.1,-,N/A,,Overcast,40,2012-11-07 09:15:00
4:34 AM,34.0,25.2,70,30.02,10.0,NE,10.4,-,N/A,,Overcast,40,2012-11-07 09:34:00
4:55 AM,34.0,25.2,70,30.03,10.0,NE,11.5,16.1,N/A,,Overcast,40,2012-11-07 09:55:00
5:14 AM,34.0,25.3,71,30.03,10.0,NNE,10.4,-,N/A,,Overcast,30,2012-11-07 10:14:00
5:35 AM,34.0,26.1,73,30.03,10.0,NNE,9.2,-,N/A,,Overcast,30,2012-11-07 10:35:00
5:55 AM,33.8,27.0,76,30.03,10.0,NNE,6.9,-,N/A,,Mostly Cloudy,20,2012-11-07 10:55:00
6:15 AM,33.6,27.3,78,30.04,10.0,NNE,8.1,-,N/A,,Scattered Clouds,20,2012-11-07 11:15:00
6:35 AM,33.1,27.1,79,30.04,10.0,North,5.8,-,N/A,,Scattered Clouds,10,2012-11-07 11:35:00
6:55 AM,32.9,27.5,81,30.04,10.0,NNE,4.6,-,N/A,,Scattered Clouds,20,2012-11-07 11:55:00
7:14 AM,32.4,27.3,82,30.05,10.0,North,4.6,-,N/A,,Scattered Clouds,10,2012-11-07 12:14:00
7:35 AM,32.2,27.5,83,30.05,10.0,North,4.6,-,N/A,,Clear,10,2012-11-07 12:35:00
7:54 AM,32.5,28.0,83,30.06,10.0,North,5.8,-,N/A,,Clear,10,2012-11-07 12:54:00
8:14 AM,33.8,28.4,81,30.06,10.0,NNE,4.6,-,N/A,,Clear,20,2012-11-07 13:14:00
8:35 AM,34.7,28.8,79,30.07,10.0,NNE,4.6,-,N/A,,Clear,30,2012-11-07 13:35:00
8:54 AM,35.8,28.8,76,30.07,10.0,NE,6.9,-,N/A,,Clear,40,2012-11-07 13:54:00
9:15 AM,36.9,29.1,74,30.06,10.0,ENE,5.8,-,N/A,,Clear,60,2012-11-07 14:15:00
9:34 AM,38.3,29.7,71,30.07,10.0,NE,6.9,-,N/A,,Clear,40,2012-11-07 14:34:00
9:55 AM,39.4,30.0,69,30.08,10.0,ENE,6.9,-,N/A,,Clear,60,2012-11-07 14:55:00
10:14 AM,39.7,29.8,68,30.08,10.0,East,10.4,-,N/A,,Clear,80,2012-11-07 15:14:00
10:34 AM,40.6,29.8,65,30.09,10.0,ENE,6.9,-,N/A,,Clear,60,2012-11-07 15:34:00
10:55 AM,42.3,30.0,62,30.10,10.0,East,10.4,-,N/A,,Clear,80,2012-11-07 15:55:00
11:14 AM,43.2,29.5,59,30.10,10.0,East,5.8,-,N/A,,Clear,80,2012-11-07 16:14:00
11:35 AM,44.4,28.6,54,30.10,10.0,ESE,5.8,-,N/A,,Clear,110,2012-11-07 16:35:00
11:54 AM,45.5,27.7,50,30.09,10.0,East,8.1,-,N/A,,Clear,90,2012-11-07 16:54:00
12:15 PM,46.4,25.5,44,30.08,10.0,Calm,Calm,-,N/A,,Clear,0,2012-11-07 17:15:00
12:34 PM,46.4,25.2,43,30.08,10.0,ENE,4.6,-,N/A,,Clear,60,2012-11-07 17:34:00
12:54 PM,46.6,23.9,41,30.07,10.0,NE,3.5,-,N/A,,Clear,50,2012-11-07 17:54:00
1:15 PM,47.3,23.0,38,30.07,10.0,NE,5.8,-,N/A,,Clear,50,2012-11-07 18:15:00
1:34 PM,47.8,22.1,36,30.07,10.0,NNE,5.8,-,N/A,,Clear,30,2012-11-07 18:34:00
1:55 PM,47.7,22.3,37,30.07,10.0,North,6.9,-,N/A,,Clear,360,2012-11-07 18:55:00
2:14 PM,48.0,21.6,35,30.07,10.0,ESE,4.6,-,N/A,,Clear,120,2012-11-07 19:14:00
2:34 PM,48.2,21.6,35,30.07,10.0,ENE,5.8,-,N/A,,Clear,60,2012-11-07 19:34:00
2:55 PM,48.4,22.3,36,30.07,10.0,NNE,5.8,-,N/A,,Clear,30,2012-11-07 19:55:00
3:14 PM,48.2,21.9,36,30.07,10.0,North,3.5,-,N/A,,Clear,360,2012-11-07 20:14:00
3:35 PM,48.2,21.9,36,30.07,10.0,ENE,8.1,-,N/A,,Clear,70,2012-11-07 20:35:00
3:55 PM,48.2,21.6,35,30.08,10.0,NE,8.1,-,N/A,,Clear,40,2012-11-07 20:55:00
4:14 PM,47.5,21.9,36,30.08,10.0,NNE,3.5,-,N/A,,Clear,30,2012-11-07 21:14:00
4:40 PM,46.9,23.0,39,30.09,10.0,NNE,4.6,-,N/A,,Clear,20,2012-11-07 21:40:00
4:55 PM,46.4,22.8,39,30.09,10.0,NE,6.9,-,N/A,,Clear,50,2012-11-07 21:55:00
5:14 PM,45.5,22.6,41,30.09,10.0,NE,5.8,-,N/A,,Clear,50,2012-11-07 22:14:00
5:35 PM,44.6,23.7,44,30.10,10.0,NNE,6.9,-,N/A,,Clear,30,2012-11-07 22:35:00
5:55 PM,43.2,24.8,48,30.11,10.0,NE,6.9,-,N/A,,Clear,40,2012-11-07 22:55:00
6:14 PM,42.8,25.3,50,30.12,10.0,NE,9.2,-,N/A,,Clear,40,2012-11-07 23:14:00
6:35 PM,41.7,26.6,55,30.13,10.0,NE,10.4,-,N/A,,Clear,50,2012-11-07 23:35:00
6:54 PM,41.0,27.7,59,30.14,10.0,NE,10.4,-,N/A,,Clear,40,2012-11-07 23:54:00
7:14 PM,40.1,28.0,62,30.15,10.0,NE,8.1,-,N/A,,Clear,40,2012-11-08 00:14:00
7:34 PM,39.4,28.4,65,30.15,10.0,NE,9.2,-,N/A,,Clear,50,2012-11-08 00:34:00
7:54 PM,38.8,28.2,66,30.15,10.0,NE,6.9,-,N/A,,Clear,50,2012-11-08 00:54:00
8:15 PM,37.8,28.2,68,30.15,10.0,NE,4.6,-,N/A,,Clear,40,2012-11-08 01:15:00
8:34 PM,37.0,28.0,70,30.15,10.0,North,4.6,-,N/A,,Clear,10,2012-11-08 01:34:00
8:54 PM,36.9,28.2,71,30.15,10.0,NE,5.8,-,N/A,,Clear,40,2012-11-08 01:54:00
9:15 PM,36.5,27.9,71,30.16,10.0,NNE,3.5,-,N/A,,Clear,20,2012-11-08 02:15:00
9:34 PM,36.0,27.5,71,30.16,10.0,Calm,Calm,-,N/A,,Clear,0,2012-11-08 02:34:00
9:55 PM,35.8,27.7,72,30.16,10.0,NE,3.5,-,N/A,,Clear,40,2012-11-08 02:55:00
10:15 PM,35.1,27.5,74,30.17,10.0,North,3.5,-,N/A,,Clear,10,2012-11-08 03:15:00
10:34 PM,34.9,27.5,74,30.17,10.0,Calm,Calm,-,N/A,,Clear,0,2012-11-08 03:34:00
10:55 PM,34.0,27.9,78,30.17,10.0,Calm,Calm,-,N/A,,Clear,0,2012-11-08 03:55:00
11:14 PM,33.6,27.7,79,30.16,10.0,Calm,Calm,-,N/A,,Clear,0,2012-11-08 04:14:00
11:35 PM,33.4,27.5,79,30.17,10.0,Calm,Calm,-,N/A,,Clear,0,2012-11-08 04:35:00
11:54 PM,32.7,27.7,82,30.17,10.0,Calm,Calm,-,N/A,,Clear,0,2012-11-08 04:54:00